Summary for MDHALE1

Southwest Baltimore Co., Halethorpe, MD 21227
Join the PWSweather.com Network
View data in metric units
Latest Conditions
Updated 10:15:02 PM EST Monday, Jan 26, 2015
Data Currently Today's Max Today's Min Today's Average
Temperature 27.7°F-2.4°C 40.6°F4.8°C 27.7°F-2.4°C 32.2°F0.1°C
Dew Point 22.9°F-5.1°C 33.6°F0.9°C 22.9°F-5.1°C 27.9°F-2.3°C
Winds 2.3 mph N3.7 kmh N 11.5 mph ENE18.5 kmh ENE 2.3 mph3.7 kmh 6.1 mph9.8 kmh
Wind Gusts 3.5 mph5.6 kmh 17.3 mph27.8 kmh 3.5 mph5.6 kmh 9.7 mph15.6 kmh
Humidity 82% 89% 73% 84%
Pressure 29.74 in1007.1 mb 29.86 in1011.2 mb 29.71 in1006.1 mb 29.79 in1008.8 mb
Precipitation 0.07 in1.8 mm - - 0.09 in2.3 mm
Trends
 
Station Profile
Southwest Baltimore Co.Halethorpe, MD 21227

Lat: 39.236, Lon: -76.697
Elevation: 86
Station Type: Davis Vantage Pro2+

http://home.comcast.net/~halethorpe_weather/index.html

Detailed Summary for Mon, Jan 26, 2015
Hour (EST) Temperature Dew Point Humidity Winds Wind Gusts Pressure Precip Precip Rate Daily Precip Total
10:15 PM 27.7°F-2.4°C 22.9°F-5.1°C 82% 2.3 mph N3.7 kmh N 3.5 mph5.6 kmh 29.74 in1007.1 mb 0.00 in0.0 mm 0.00 in/hr0.0 mm/hr 0.07 in1.8 mm
10:00 PM 27.9°F-2.3°C 23.4°F-4.8°C 83% 6.9 mph NNW11.1 kmh NNW 12.7 mph20.4 kmh 29.74 in1007.1 mb 0.00 in0.0 mm 0.00 in/hr0.0 mm/hr 0.07 in1.8 mm
09:45 PM 28.1°F-2.2°C 23.9°F-4.5°C 84% 3.5 mph N5.6 kmh N 5.8 mph9.3 kmh 29.74 in1007.1 mb 0.00 in0.0 mm 0.00 in/hr0.0 mm/hr 0.07 in1.8 mm
09:30 PM 28.4°F-2.0°C 24.2°F-4.3°C 84% 3.5 mph N5.6 kmh N 4.6 mph7.4 kmh 29.75 in1007.5 mb 0.00 in0.0 mm 0.00 in/hr0.0 mm/hr 0.07 in1.8 mm
09:15 PM 28.5°F-1.9°C 24.0°F-4.4°C 83% 3.5 mph NNE5.6 kmh NNE 6.9 mph11.1 kmh 29.75 in1007.5 mb 0.00 in0.0 mm 0.00 in/hr0.0 mm/hr 0.07 in1.8 mm
09:00 PM 28.5°F-1.9°C 24.0°F-4.4°C 83% 5.8 mph NNE9.3 kmh NNE 8.1 mph13.0 kmh 29.75 in1007.5 mb 0.00 in0.0 mm 0.00 in/hr0.0 mm/hr 0.07 in1.8 mm
08:45 PM 28.5°F-1.9°C 24.3°F-4.3°C 84% 4.6 mph N7.4 kmh N 10.4 mph16.7 kmh 29.74 in1007.1 mb 0.00 in0.0 mm 0.00 in/hr0.0 mm/hr 0.07 in1.8 mm
08:30 PM 28.5°F-1.9°C 24.6°F-4.1°C 85% 2.3 mph N3.7 kmh N 5.8 mph9.3 kmh 29.74 in1007.1 mb 0.00 in0.0 mm 0.00 in/hr0.0 mm/hr 0.07 in1.8 mm
08:15 PM 28.7°F-1.8°C 24.7°F-4.1°C 85% 5.8 mph N9.3 kmh N 8.1 mph13.0 kmh 29.74 in1007.1 mb 0.00 in0.0 mm 0.00 in/hr0.0 mm/hr 0.07 in1.8 mm
08:00 PM 28.8°F-1.8°C 24.3°F-4.3°C 83% 9.2 mph NE14.8 kmh NE 11.5 mph18.5 kmh 29.75 in1007.5 mb 0.00 in0.0 mm 0.00 in/hr0.0 mm/hr 0.07 in1.8 mm
07:45 PM 29.1°F-1.6°C 24.0°F-4.4°C 81% 5.8 mph NNE9.3 kmh NNE 12.7 mph20.4 kmh 29.74 in1007.1 mb 0.00 in0.0 mm 0.00 in/hr0.0 mm/hr 0.07 in1.8 mm
07:30 PM 29.4°F-1.4°C 24.3°F-4.3°C 81% 8.1 mph N13.0 kmh N 11.5 mph18.5 kmh 29.74 in1007.1 mb 0.00 in0.0 mm 0.00 in/hr0.0 mm/hr 0.07 in1.8 mm
07:15 PM 29.5°F-1.4°C 24.4°F-4.2°C 81% 8.1 mph NNE13.0 kmh NNE 12.7 mph20.4 kmh 29.74 in1007.1 mb 0.00 in0.0 mm 0.00 in/hr0.0 mm/hr 0.07 in1.8 mm
07:00 PM 29.7°F-1.3°C 24.6°F-4.1°C 81% 5.8 mph NNE9.3 kmh NNE 6.9 mph11.1 kmh 29.74 in1007.1 mb 0.00 in0.0 mm 0.00 in/hr0.0 mm/hr 0.07 in1.8 mm
06:45 PM 29.7°F-1.3°C 24.6°F-4.1°C 81% 6.9 mph NE11.1 kmh NE 10.4 mph16.7 kmh 29.73 in1006.8 mb 0.00 in0.0 mm 0.00 in/hr0.0 mm/hr 0.07 in1.8 mm
06:30 PM 29.8°F-1.2°C 24.7°F-4.1°C 81% 6.9 mph NE11.1 kmh NE 9.2 mph14.8 kmh 29.74 in1007.1 mb 0.00 in0.0 mm 0.00 in/hr0.0 mm/hr 0.07 in1.8 mm
06:15 PM 29.8°F-1.2°C 25.0°F-3.9°C 82% 5.8 mph N9.3 kmh N 8.1 mph13.0 kmh 29.74 in1007.1 mb 0.00 in0.0 mm 0.00 in/hr0.0 mm/hr 0.07 in1.8 mm
06:00 PM 29.9°F-1.2°C 25.1°F-3.8°C 82% 9.2 mph NNE14.8 kmh NNE 12.7 mph20.4 kmh 29.74 in1007.1 mb 0.00 in0.0 mm 0.00 in/hr0.0 mm/hr 0.07 in1.8 mm
05:45 PM 30.0°F-1.1°C 25.5°F-3.6°C 83% 4.6 mph N7.4 kmh N 6.9 mph11.1 kmh 29.74 in1007.1 mb 0.00 in0.0 mm 0.00 in/hr0.0 mm/hr 0.07 in1.8 mm
05:30 PM 30.1°F-1.1°C 25.6°F-3.6°C 83% 6.9 mph NE11.1 kmh NE 6.9 mph11.1 kmh 29.73 in1006.8 mb 0.00 in0.0 mm 0.00 in/hr0.0 mm/hr 0.07 in1.8 mm
05:15 PM 30.1°F-1.1°C 25.8°F-3.4°C 84% 5.8 mph NNE9.3 kmh NNE 5.8 mph9.3 kmh 29.73 in1006.8 mb 0.00 in0.0 mm 0.00 in/hr0.0 mm/hr 0.07 in1.8 mm
05:00 PM 30.2°F-1.0°C 25.9°F-3.4°C 84% 6.9 mph NE11.1 kmh NE 11.5 mph18.5 kmh 29.73 in1006.8 mb 0.00 in0.0 mm 0.00 in/hr0.0 mm/hr 0.07 in1.8 mm
04:45 PM 30.3°F-0.9°C 26.3°F-3.2°C 85% 4.6 mph NE7.4 kmh NE 5.8 mph9.3 kmh 29.72 in1006.4 mb 0.00 in0.0 mm 0.00 in/hr0.0 mm/hr 0.07 in1.8 mm
04:30 PM 30.6°F-0.8°C 26.6°F-3.0°C 85% 4.6 mph NNE7.4 kmh NNE 6.9 mph11.1 kmh 29.72 in1006.4 mb 0.00 in0.0 mm 0.00 in/hr0.0 mm/hr 0.07 in1.8 mm
04:15 PM 30.8°F-0.7°C 26.8°F-2.9°C 85% 4.6 mph N7.4 kmh N 6.9 mph11.1 kmh 29.71 in1006.1 mb 0.00 in0.0 mm 0.00 in/hr0.0 mm/hr 0.07 in1.8 mm
04:00 PM 31.0°F-0.6°C 27.0°F-2.8°C 85% 5.8 mph NE9.3 kmh NE 8.1 mph13.0 kmh 29.72 in1006.4 mb 0.00 in0.0 mm 0.00 in/hr0.0 mm/hr 0.07 in1.8 mm
03:45 PM 31.0°F-0.6°C 27.1°F-2.7°C 85% 5.8 mph NNE9.3 kmh NNE 10.4 mph16.7 kmh 29.71 in1006.1 mb 0.00 in0.0 mm 0.00 in/hr0.0 mm/hr 0.07 in1.8 mm
03:30 PM 31.1°F-0.5°C 27.1°F-2.7°C 85% 4.6 mph NE7.4 kmh NE 8.1 mph13.0 kmh 29.71 in1006.1 mb 0.00 in0.0 mm 0.00 in/hr0.0 mm/hr 0.07 in1.8 mm
03:15 PM 31.1°F-0.5°C 27.2°F-2.7°C 85% 5.8 mph NE9.3 kmh NE 8.1 mph13.0 kmh 29.71 in1006.1 mb 0.00 in0.0 mm 0.00 in/hr0.0 mm/hr 0.07 in1.8 mm
03:00 PM 31.2°F-0.4°C 27.2°F-2.7°C 85% 4.6 mph NNE7.4 kmh NNE 4.6 mph7.4 kmh 29.71 in1006.1 mb 0.00 in0.0 mm 0.00 in/hr0.0 mm/hr 0.07 in1.8 mm
02:45 PM 31.2°F-0.4°C 27.2°F-2.7°C 85% 6.9 mph NE11.1 kmh NE 12.7 mph20.4 kmh 29.72 in1006.4 mb 0.00 in0.0 mm 0.00 in/hr0.0 mm/hr 0.07 in1.8 mm
02:30 PM 31.2°F-0.4°C 27.2°F-2.7°C 85% 3.5 mph NNE5.6 kmh NNE 5.8 mph9.3 kmh 29.73 in1006.8 mb 0.00 in0.0 mm 0.00 in/hr0.0 mm/hr 0.07 in1.8 mm
02:15 PM 31.3°F-0.4°C 27.3°F-2.6°C 85% 8.1 mph NE13.0 kmh NE 11.5 mph18.5 kmh 29.73 in1006.8 mb 0.00 in0.0 mm 0.00 in/hr0.0 mm/hr 0.07 in1.8 mm
02:00 PM 31.3°F-0.4°C 27.3°F-2.6°C 85% 4.6 mph NNE7.4 kmh NNE 8.1 mph13.0 kmh 29.73 in1006.8 mb 0.01 in0.3 mm 0.01 in/hr0.3 mm/hr 0.07 in1.8 mm
01:45 PM 31.3°F-0.4°C 27.3°F-2.6°C 85% 5.8 mph NE9.3 kmh NE 12.7 mph20.4 kmh 29.73 in1006.8 mb 0.00 in0.0 mm 0.00 in/hr0.0 mm/hr 0.06 in1.5 mm
01:30 PM 31.3°F-0.4°C 27.3°F-2.6°C 85% 4.6 mph NE7.4 kmh NE 6.9 mph11.1 kmh 29.73 in1006.8 mb 0.00 in0.0 mm 0.00 in/hr0.0 mm/hr 0.06 in1.5 mm
01:15 PM 31.3°F-0.4°C 27.3°F-2.6°C 85% 5.8 mph NE9.3 kmh NE 8.1 mph13.0 kmh 29.74 in1007.1 mb 0.00 in0.0 mm 0.00 in/hr0.0 mm/hr 0.06 in1.5 mm
01:00 PM 31.3°F-0.4°C 27.3°F-2.6°C 85% 4.6 mph ENE7.4 kmh ENE 11.5 mph18.5 kmh 29.75 in1007.5 mb 0.00 in0.0 mm 0.00 in/hr0.0 mm/hr 0.06 in1.5 mm
12:45 PM 31.2°F-0.4°C 27.2°F-2.7°C 85% 5.8 mph ENE9.3 kmh ENE 8.1 mph13.0 kmh 29.76 in1007.8 mb 0.00 in0.0 mm 0.00 in/hr0.0 mm/hr 0.06 in1.5 mm
12:30 PM 30.9°F-0.6°C 26.9°F-2.8°C 85% 8.1 mph ENE13.0 kmh ENE 16.1 mph25.9 kmh 29.77 in1008.1 mb 0.01 in0.3 mm 0.04 in/hr1.0 mm/hr 0.06 in1.5 mm
12:15 PM 30.7°F-0.7°C 27.0°F-2.8°C 86% 9.2 mph N14.8 kmh N 12.7 mph20.4 kmh 29.78 in1008.5 mb 0.00 in0.0 mm 0.00 in/hr0.0 mm/hr 0.05 in1.3 mm
12:00 PM 30.7°F-0.7°C 27.0°F-2.8°C 86% 4.6 mph NE7.4 kmh NE 5.8 mph9.3 kmh 29.79 in1008.8 mb 0.00 in0.0 mm 0.00 in/hr0.0 mm/hr 0.05 in1.3 mm
11:45 AM 30.7°F-0.7°C 27.3°F-2.6°C 87% 5.8 mph N9.3 kmh N 10.4 mph16.7 kmh 29.79 in1008.8 mb 0.00 in0.0 mm 0.00 in/hr0.0 mm/hr 0.05 in1.3 mm
11:30 AM 30.6°F-0.8°C 27.4°F-2.6°C 88% 4.6 mph NNE7.4 kmh NNE 10.4 mph16.7 kmh 29.80 in1009.1 mb 0.00 in0.0 mm 0.00 in/hr0.0 mm/hr 0.05 in1.3 mm
11:15 AM 30.6°F-0.8°C 27.2°F-2.7°C 87% 6.9 mph ENE11.1 kmh ENE 10.4 mph16.7 kmh 29.81 in1009.5 mb 0.00 in0.0 mm 0.00 in/hr0.0 mm/hr 0.05 in1.3 mm
11:00 AM 30.8°F-0.7°C 27.7°F-2.4°C 88% 9.2 mph ENE14.8 kmh ENE 12.7 mph20.4 kmh 29.82 in1009.8 mb 0.00 in0.0 mm 0.00 in/hr0.0 mm/hr 0.05 in1.3 mm
10:45 AM 31.0°F-0.6°C 27.9°F-2.3°C 88% 8.1 mph NE13.0 kmh NE 12.7 mph20.4 kmh 29.82 in1009.8 mb 0.00 in0.0 mm 0.00 in/hr0.0 mm/hr 0.05 in1.3 mm
10:30 AM 31.1°F-0.5°C 28.0°F-2.2°C 88% 5.8 mph ENE9.3 kmh ENE 6.9 mph11.1 kmh 29.82 in1009.8 mb 0.00 in0.0 mm 0.00 in/hr0.0 mm/hr 0.05 in1.3 mm
10:15 AM 31.1°F-0.5°C 28.0°F-2.2°C 88% 10.4 mph E16.7 kmh E 12.7 mph20.4 kmh 29.82 in1009.8 mb 0.00 in0.0 mm 0.00 in/hr0.0 mm/hr 0.05 in1.3 mm
10:00 AM 31.2°F-0.4°C 28.1°F-2.2°C 88% 8.1 mph NE13.0 kmh NE 12.7 mph20.4 kmh 29.82 in1009.8 mb 0.00 in0.0 mm 0.00 in/hr0.0 mm/hr 0.05 in1.3 mm
09:45 AM 31.2°F-0.4°C 28.1°F-2.2°C 88% 6.9 mph NE11.1 kmh NE 12.7 mph20.4 kmh 29.82 in1009.8 mb 0.00 in0.0 mm 0.00 in/hr0.0 mm/hr 0.05 in1.3 mm
09:30 AM 31.1°F-0.5°C 28.2°F-2.1°C 89% 6.9 mph NE11.1 kmh NE 9.2 mph14.8 kmh 29.82 in1009.8 mb 0.00 in0.0 mm 0.00 in/hr0.0 mm/hr 0.05 in1.3 mm
09:15 AM 30.9°F-0.6°C 28.0°F-2.2°C 89% 6.9 mph ENE11.1 kmh ENE 10.4 mph16.7 kmh 29.82 in1009.8 mb 0.00 in0.0 mm 0.00 in/hr0.0 mm/hr 0.05 in1.3 mm
09:00 AM 30.8°F-0.7°C 27.9°F-2.3°C 89% 6.9 mph ENE11.1 kmh ENE 12.7 mph20.4 kmh 29.82 in1009.8 mb 0.00 in0.0 mm 0.00 in/hr0.0 mm/hr 0.05 in1.3 mm
08:45 AM 30.6°F-0.8°C 27.7°F-2.4°C 89% 4.6 mph NE7.4 kmh NE 6.9 mph11.1 kmh 29.83 in1010.2 mb 0.00 in0.0 mm 0.00 in/hr0.0 mm/hr 0.05 in1.3 mm
08:30 AM 30.5°F-0.8°C 27.4°F-2.6°C 88% 4.6 mph E7.4 kmh E 11.5 mph18.5 kmh 29.83 in1010.2 mb 0.00 in0.0 mm 0.00 in/hr0.0 mm/hr 0.05 in1.3 mm
08:15 AM 30.6°F-0.8°C 27.5°F-2.5°C 88% 4.6 mph E7.4 kmh E 6.9 mph11.1 kmh 29.83 in1010.2 mb 0.00 in0.0 mm 0.00 in/hr0.0 mm/hr 0.05 in1.3 mm
08:00 AM 30.9°F-0.6°C 27.5°F-2.5°C 87% 2.3 mph NE3.7 kmh NE 4.6 mph7.4 kmh 29.84 in1010.5 mb 0.00 in0.0 mm 0.00 in/hr0.0 mm/hr 0.05 in1.3 mm
07:45 AM 31.1°F-0.5°C 27.1°F-2.7°C 85% 3.5 mph ENE5.6 kmh ENE 6.9 mph11.1 kmh 29.84 in1010.5 mb 0.00 in0.0 mm 0.00 in/hr0.0 mm/hr 0.05 in1.3 mm
07:30 AM 31.4°F-0.3°C 26.8°F-2.9°C 83% 5.8 mph NE9.3 kmh NE 3.5 mph5.6 kmh 29.84 in1010.5 mb 0.00 in0.0 mm 0.00 in/hr0.0 mm/hr 0.05 in1.3 mm
07:15 AM 31.6°F-0.2°C 26.7°F-2.9°C 82% 6.9 mph ENE11.1 kmh ENE 11.5 mph18.5 kmh 29.84 in1010.5 mb 0.00 in0.0 mm 0.00 in/hr0.0 mm/hr 0.05 in1.3 mm
07:00 AM 31.7°F-0.2°C 26.8°F-2.9°C 82% 5.8 mph ENE9.3 kmh ENE 12.7 mph20.4 kmh 29.84 in1010.5 mb 0.00 in0.0 mm 0.00 in/hr0.0 mm/hr 0.05 in1.3 mm
06:45 AM 31.7°F-0.2°C 27.1°F-2.7°C 83% 8.1 mph ENE13.0 kmh ENE 12.7 mph20.4 kmh 29.84 in1010.5 mb 0.00 in0.0 mm 0.00 in/hr0.0 mm/hr 0.05 in1.3 mm
06:30 AM 31.7°F-0.2°C 27.4°F-2.6°C 84% 9.2 mph ENE14.8 kmh ENE 12.7 mph20.4 kmh 29.83 in1010.2 mb 0.00 in0.0 mm 0.00 in/hr0.0 mm/hr 0.05 in1.3 mm
06:15 AM 31.7°F-0.2°C 27.7°F-2.4°C 85% 5.8 mph NE9.3 kmh NE 13.8 mph22.2 kmh 29.83 in1010.2 mb 0.00 in0.0 mm 0.00 in/hr0.0 mm/hr 0.05 in1.3 mm
06:00 AM 31.8°F-0.1°C 28.1°F-2.2°C 86% 5.8 mph ENE9.3 kmh ENE 10.4 mph16.7 kmh 29.83 in1010.2 mb 0.00 in0.0 mm 0.00 in/hr0.0 mm/hr 0.05 in1.3 mm
05:45 AM 31.9°F-0.1°C 28.2°F-2.1°C 86% 11.5 mph ENE18.5 kmh ENE 16.1 mph25.9 kmh 29.83 in1010.2 mb 0.00 in0.0 mm 0.00 in/hr0.0 mm/hr 0.05 in1.3 mm
05:30 AM 32.2°F0.1°C 28.5°F-1.9°C 86% 8.1 mph ENE13.0 kmh ENE 17.3 mph27.8 kmh 29.83 in1010.2 mb 0.00 in0.0 mm 0.00 in/hr0.0 mm/hr 0.05 in1.3 mm
05:15 AM 32.6°F0.3°C 28.9°F-1.7°C 86% 9.2 mph NE14.8 kmh NE 11.5 mph18.5 kmh 29.83 in1010.2 mb 0.00 in0.0 mm 0.00 in/hr0.0 mm/hr 0.05 in1.3 mm
05:00 AM 33.0°F0.6°C 29.6°F-1.3°C 87% 6.9 mph NE11.1 kmh NE 8.1 mph13.0 kmh 29.84 in1010.5 mb 0.00 in0.0 mm 0.00 in/hr0.0 mm/hr 0.05 in1.3 mm
04:45 AM 33.5°F0.8°C 30.1°F-1.1°C 87% 6.9 mph ENE11.1 kmh ENE 11.5 mph18.5 kmh 29.83 in1010.2 mb 0.01 in0.3 mm 0.04 in/hr1.0 mm/hr 0.05 in1.3 mm
04:30 AM 34.2°F1.2°C 30.7°F-0.7°C 87% 9.2 mph E14.8 kmh E 11.5 mph18.5 kmh 29.84 in1010.5 mb 0.00 in0.0 mm 0.00 in/hr0.0 mm/hr 0.04 in1.0 mm
04:15 AM 34.8°F1.6°C 31.3°F-0.4°C 87% 8.1 mph ENE13.0 kmh ENE 12.7 mph20.4 kmh 29.84 in1010.5 mb 0.00 in0.0 mm 0.00 in/hr0.0 mm/hr 0.04 in1.0 mm
04:00 AM 35.4°F1.9°C 31.9°F-0.1°C 87% 6.9 mph E11.1 kmh E 12.7 mph20.4 kmh 29.83 in1010.2 mb 0.00 in0.0 mm 0.00 in/hr0.0 mm/hr 0.04 in1.0 mm
03:45 AM 36.1°F2.3°C 32.3°F0.2°C 86% 6.9 mph NE11.1 kmh NE 8.1 mph13.0 kmh 29.84 in1010.5 mb 0.01 in0.3 mm 0.04 in/hr1.0 mm/hr 0.04 in1.0 mm
03:30 AM 36.8°F2.7°C 33.0°F0.6°C 86% 5.8 mph E9.3 kmh E 10.4 mph16.7 kmh 29.84 in1010.5 mb 0.01 in0.3 mm 0.04 in/hr1.0 mm/hr 0.04 in1.0 mm
03:15 AM 37.3°F2.9°C 33.5°F0.8°C 86% 8.1 mph ENE13.0 kmh ENE 13.8 mph22.2 kmh 29.84 in1010.5 mb 0.00 in0.0 mm 0.00 in/hr0.0 mm/hr 0.03 in0.8 mm
03:00 AM 37.6°F3.1°C 33.5°F0.8°C 85% 9.2 mph ENE14.8 kmh ENE 13.8 mph22.2 kmh 29.84 in1010.5 mb 0.01 in0.3 mm 0.01 in/hr0.3 mm/hr 0.03 in0.8 mm
02:45 AM 37.9°F3.3°C 33.5°F0.8°C 84% 9.2 mph NE14.8 kmh NE 16.1 mph25.9 kmh 29.84 in1010.5 mb 0.01 in0.3 mm 0.04 in/hr1.0 mm/hr 0.03 in0.8 mm
02:30 AM 38.1°F3.4°C 33.4°F0.8°C 83% 9.2 mph NE14.8 kmh NE 12.7 mph20.4 kmh 29.84 in1010.5 mb 0.00 in0.0 mm 0.00 in/hr0.0 mm/hr 0.02 in0.5 mm
02:15 AM 38.5°F3.6°C 33.5°F0.8°C 82% 5.8 mph NE9.3 kmh NE 10.4 mph16.7 kmh 29.85 in1010.8 mb 0.01 in0.3 mm 0.04 in/hr1.0 mm/hr 0.02 in0.5 mm
02:00 AM 38.9°F3.8°C 33.6°F0.9°C 81% 2.3 mph ENE3.7 kmh ENE 6.9 mph11.1 kmh 29.85 in1010.8 mb 0.01 in0.3 mm 0.01 in/hr0.3 mm/hr 0.01 in0.3 mm
01:45 AM 39.3°F4.1°C 33.3°F0.7°C 79% 4.6 mph NE7.4 kmh NE 10.4 mph16.7 kmh 29.86 in1011.2 mb 0.00 in0.0 mm 0.00 in/hr0.0 mm/hr 0.00 in0.0 mm
01:30 AM 39.5°F4.2°C 32.9°F0.5°C 77% 3.5 mph E5.6 kmh E 5.8 mph9.3 kmh 29.85 in1010.8 mb 0.00 in0.0 mm 0.00 in/hr0.0 mm/hr 0.00 in0.0 mm
01:15 AM 39.7°F4.3°C 32.8°F0.4°C 76% 5.8 mph ENE9.3 kmh ENE 8.1 mph13.0 kmh 29.85 in1010.8 mb 0.00 in0.0 mm 0.00 in/hr0.0 mm/hr 0.00 in0.0 mm
01:00 AM 40.0°F4.4°C 32.7°F0.4°C 75% 3.5 mph E5.6 kmh E 6.9 mph11.1 kmh 29.86 in1011.2 mb 0.00 in0.0 mm 0.00 in/hr0.0 mm/hr 0.00 in0.0 mm
12:45 AM 40.1°F4.5°C 32.8°F0.4°C 75% 4.6 mph NE7.4 kmh NE 5.8 mph9.3 kmh 29.86 in1011.2 mb 0.00 in0.0 mm 0.00 in/hr0.0 mm/hr 0.00 in0.0 mm
12:30 AM 40.3°F4.6°C 32.7°F0.4°C 74% 2.3 mph ENE3.7 kmh ENE 6.9 mph11.1 kmh 29.86 in1011.2 mb 0.00 in0.0 mm 0.00 in/hr0.0 mm/hr 0.00 in0.0 mm
12:15 AM 40.5°F4.7°C 32.9°F0.5°C 74% 3.5 mph NE5.6 kmh NE 4.6 mph7.4 kmh 29.86 in1011.2 mb 0.00 in0.0 mm 0.00 in/hr0.0 mm/hr 0.00 in0.0 mm
12:01 AM 40.6°F4.8°C 32.6°F0.3°C 73% 5.8 mph E9.3 kmh E 12.7 mph20.4 kmh 29.86 in1011.2 mb 0.00 in0.0 mm 0.00 in/hr0.0 mm/hr 0.00 in0.0 mm
WeatherForYou.com, LLC is not responsible for any damages or problems caused by this service. Current weather conditions are obtained from the closest station including government and personal stations which may have varying degrees of accuracy. Weather forecasts are derived from the NOAA NDFD and obtained through HAMweather's Aeris Weather API. Like all things, this site belongs to Jesus Christ... He just trusts me to maintain it. If you have any questions or comments email webmaster@weatherforyou.com

Copyright © 2015, WeatherForYou.com LLC. All rights reserved.